Portada
METAR-TAF:

METAR-TAF

Aeroports :

Wanaham

Lifou, Nova Caledònia

latitud: 20-46S, longitud: 167-14E, altitud: 28 m

METAR: manca

Hora: 03:36 (16:36 UTC)

Pronòstic

L'informe es va fer fa 5 hores i 36 minuts, a les 11:00 UTC
Pronòstic vàlid del 18 a les 12 UTC al 19 a les 12 UTC
Vent 10 kt del Est amb ràfegues de 20 kt
Visibilitat 10 km o més
Núvols disperses a una alçada de 2500 ft
Núvols disperses a una alçada de 3500 ft
Cel ennuvolat a una alçada de 5000 ft
Temporalment
l' 18 a les 12 UTC al 18 a les 18 UTC
Visibilitat: 4000 m
Cel ennuvolat a una alçada de 1400 ft
Núvols disperses a una alçada de 2000 ft, Cumulus congestus.
xàfecs de pluja
Temporalment
l' 19 a les 03 UTC al 19 a les 06 UTC
Escasses núvols a una alçada de 2000 ft, Cumulus congestus.
xàfecs de pluja

TAF: NWWL 181100Z 1812/1912 10010G20KT 9999 SCT025 SCT035 BKN050 TEMPO 1812/1818 4000 SHRA BKN014 SCT020TCU TEMPO 1903/1906 SHRA FEW020TCU

Observacions i pronòstics meteorològics de més de 4000 aeroports (METAR i TAF).

Les estacions disponibles són els punts grocs i vermells al mapa.

Posi el ratolí al punt desitjat per veure el nom de l'estació.

Feu clic per veure les observacions i els pronòstics meteorològics.

Per canviar el mapa: feu clic els botons verds amb una creu de color negre per apropar; al botó verd amb un guió per allunyar la imatge; o en les fletxes verdes per a mapes adjacents.


METAR-TAF: